Other Surface Observations
Issued by NWS Missoula, MT

Current Version | Previous Version | Text Only | Print | Product List | Glossary On
Versions: 1 2 3 4 5 6 7 8 9 10 11 12 13 14 15 16 17 18 19 20 21 22 23 24 25 26 27 28 29 30 31 32 33 34 35 36 37 38 39 40 41 42 43 44 45 46 47 48 49 50
000
SXUS55 KMSO 261403
OSOMSO
MONTANA AWOS SUMMARY
NATIONAL WEATHER SERVICE MISSOULA MT
803 AM MDT WED NOV 26 2014

Montana AWOS Reports

LAUREL      |K6S8 261355Z AUTO 00000KT 1 3/4SM M03/M07 A3013 RMK AO1 T10271066
PLAINS      |KS34 261355Z AUTO 00000KT 1SM 00/M02 A3014 RMK AO1 T00001021
TWIN BRIDGES|K7S1 261355Z AUTO 16004KT 3/4SM M04/M07 A3008 RMK AO1 T10431066
SCOBEY      |K9S2 261355Z AUTO 00000KT 25SM M12/M17 A3022 RMK AO1 T11161171




USA.gov is the U.S. government's official web portal to all federal, state and local government web resources and services.